METAR Data
IDs: Format: Raw Decoded Include TAF

Data at: 0713 UTC 03 Aug 2021

KLAX 030653Z COR 18003KT 10SM FEW008 19/15 A2997 RMK AO2 SLP145 FU FEW008 T01940150 $
KLAX 030553Z 00000KT 10SM CLR 19/15 A2996 RMK AO2 SLP144 T01890150 10228 20189 50008 $
KLAX 030453Z 15004KT 10SM CLR 20/14 A2996 RMK AO2 SLP144 T02000144 $
KLAX 030353Z 24005KT 10SM CLR 19/15 A2995 RMK AO2 SLP140 T01890150
KLAX 030253Z COR 24008KT 10SM CLR 19/16 A2994 RMK AO2 SLP137 T01940156 55005
KLAX 030153Z 25018KT 10SM CLR 21/14 A2994 RMK AO2 SLP136 T02060139
KLAX 030053Z 24011KT 10SM CLR 22/14 A2994 RMK AO2 SLP138 T02220139
KLAX 022353Z 26014KT 10SM CLR 22/14 A2995 RMK AO2 SLP142 T02220139 10256 20222 57014
KLAX 022253Z 26014KT 10SM CLR 22/14 A2997 RMK AO2 SLP146 T02220139
KLAX 022153Z 25016KT 10SM CLR 23/16 A2998 RMK AO2 SLP152 T02280156
KLAX 022053Z 27014KT 10SM CLR 23/15 A2999 RMK AO2 SLP155 T02330150 56013
KLAX 021953Z 27011KT 10SM CLR 24/16 A3000 RMK AO2 SLP158 T02390156
KLAX 021853Z 25010KT 10SM FEW016 26/16 A3002 RMK AO2 SLP163 T02560156
KLAX 021753Z 26007KT 10SM FEW015 24/17 A3003 RMK AO2 SLP168 T02390167 10239 20172 58007
KLAX 021653Z 25008KT 8SM FEW012 23/17 A3004 RMK AO2 SLP172 T02330167
KLAX 021553Z 12003KT 8SM FEW013 22/15 A3006 RMK AO2 SLP176 T02220150
KLAX 021453Z 14003KT 8SM FEW012 19/16 A3006 RMK AO2 SLP176 T01940161 51015
KLAX 021353Z 00000KT 8SM FEW016 18/16 A3004 RMK AO2 SLP171 T01830156
KLAX 021253Z 00000KT 10SM FEW015 18/16 A3003 RMK AO2 SLP166 T01780156
KLAX 021153Z 24003KT 10SM CLR 17/16 A3001 RMK AO2 SLP161 T01720156 10183 20172 53000
KLAX 021053Z 00000KT 10SM CLR 17/15 A3001 RMK AO2 SLP161 T01720150
KLAX 020953Z 00000KT 10SM CLR 17/15 A3001 RMK AO2 SLP158 T01720150
KLAX 020853Z 14004KT 10SM CLR 17/15 A3001 RMK AO2 SLP161 T01720150 58003
KLAX 020753Z 19003KT 10SM CLR 17/15 A3002 RMK AO2 SLP163 T01720150 402330167
KLAX 020653Z 19005KT 10SM CLR 18/15 A3002 RMK AO2 SLP163 T01780150
KLAX 020553Z 18003KT 10SM CLR 18/15 A3002 RMK AO2 SLP163 T01830150 10222 20183 51013
KLAX 020453Z 23005KT 10SM CLR 18/14 A3001 RMK AO2 SLP160 T01830144
KLAX 020353Z 23009KT 10SM CLR 19/14 A3000 RMK AO2 SLP156 T01890144
KLAX 020253Z 23010KT 10SM CLR 19/14 A2998 RMK AO2 SLP151 T01940139 56010
KLAX 020153Z 25014KT 10SM CLR 20/14 A2999 RMK AO2 SLP152 T02000139
KLAX 020053Z 26017KT 10SM CLR 22/13 A3000 RMK AO2 SLP157 T02170133
KLAX 012353Z COR 27013KT 10SM FEW100 22/14 A3001 RMK AO2 SLP161 T02170144 10233 20217 56007
KLAX 012253Z 26014KT 10SM FEW120 22/14 A3001 RMK AO2 SLP162 T02220144
KLAX 012153Z 26017KT 10SM FEW120 22/15 A3002 RMK AO2 SLP166 T02220150
KLAX 012053Z 27013KT 10SM FEW003 FEW120 23/16 A3003 RMK AO2 SLP168 T02280156 58009
KLAX 011953Z 23010KT 10SM FEW003 FEW110 22/16 A3004 RMK AO2 SLP172 T02220156
KLAX 011919Z 27011KT 10SM FEW003 FEW110 22/16 A3005 RMK AO2 T02170161